Time;durP1;ratioP1;P1;durP2;ratioP2;P2;SDS_P1;SDS_P2;PMS_P1;PMS_P2;Temp;Humidity;BMP_temperature;BMP_pressure;BME280_temperature;BME280_humidity;BME280_pressure;Samples;Min_cycle;Max_cycle;Signal;HPM_P1;HPM_P2
2021/01/06 00:04:57;;;;;;;4.80;3.17;;;16.20;62.80;;;;;;10496261;28;20033;-64
2021/01/06 00:09:57;;;;;;;4.22;2.75;;;16.10;62.80;;;;;;10496020;28;20119;-64
2021/01/06 00:14:58;;;;;;;5.28;3.20;;;16.10;62.80;;;;;;10495983;28;20036;-64
2021/01/06 00:19:59;;;;;;;3.95;2.92;;;16.10;62.90;;;;;;10494887;28;20056;-64
2021/01/06 00:25:00;;;;;;;5.18;2.78;;;16.00;62.80;;;;;;10495393;28;20052;-64
2021/01/06 00:30:01;;;;;;;4.07;3.17;;;16.10;62.90;;;;;;10494376;28;20407;-64
2021/01/06 00:35:03;;;;;;;4.43;3.13;;;16.00;62.90;;;;;;10495770;28;20461;-63
2021/01/06 00:40:06;;;;;;;3.33;2.67;;;16.00;62.90;;;;;;10499187;28;20028;-64
2021/01/06 00:45:13;;;;;;;4.13;2.50;;;16.00;62.90;;;;;;10503854;28;20051;-64
2021/01/06 00:50:14;;;;;;;3.72;2.67;;;15.90;62.80;;;;;;10503419;28;20450;-63
2021/01/06 00:55:15;;;;;;;4.47;2.53;;;15.90;62.90;;;;;;10503188;28;20034;-64
2021/01/06 01:00:19;;;;;;;2.90;2.53;;;15.90;62.80;;;;;;10503424;28;20465;-64
2021/01/06 01:05:28;;;;;;;3.83;2.60;;;15.90;62.80;;;;;;10497982;28;20036;-63
2021/01/06 01:10:33;;;;;;;3.47;2.35;;;15.90;62.90;;;;;;10494615;28;20048;-64
2021/01/06 01:15:37;;;;;;;4.28;2.70;;;15.90;62.80;;;;;;10502977;28;20059;-64
2021/01/06 01:20:47;;;;;;;3.63;2.50;;;15.80;62.70;;;;;;10501718;28;20044;-64
2021/01/06 01:25:48;;;;;;;4.93;2.30;;;15.80;62.80;;;;;;10502063;28;20058;-63
2021/01/06 01:30:50;;;;;;;4.30;2.53;;;15.80;62.90;;;;;;10502652;28;20043;-63
2021/01/06 01:35:51;;;;;;;3.35;2.33;;;15.80;63.50;;;;;;10497648;28;20021;-64
2021/01/06 01:41:10;;;;;;;4.50;2.80;;;15.80;62.90;;;;;;10502198;28;20044;-64
2021/01/06 01:46:46;;;;;;;3.45;2.38;;;15.70;63.00;;;;;;10499568;28;20029;-64
2021/01/06 01:51:59;;;;;;;4.15;2.47;;;15.70;62.90;;;;;;10488567;28;20059;-64
2021/01/06 01:57:17;;;;;;;5.05;2.80;;;15.70;63.00;;;;;;10493419;28;20055;-63
2021/01/06 02:02:34;;;;;;;3.00;2.25;;;15.70;63.00;;;;;;10495872;28;20050;-63
2021/01/06 02:07:47;;;;;;;3.78;2.95;;;15.70;62.90;;;;;;10500976;28;20044;-64
2021/01/06 02:12:55;;;;;;;3.22;2.17;;;15.70;63.00;;;;;;10499789;28;20024;-63
2021/01/06 02:17:56;;;;;;;3.03;2.30;;;15.60;63.00;;;;;;10499384;28;20068;-64
2021/01/06 02:22:57;;;;;;;4.28;2.50;;;15.60;63.00;;;;;;10500610;28;20106;-63
2021/01/06 02:28:00;;;;;;;4.07;2.35;;;15.60;63.00;;;;;;10498441;28;20416;-63
2021/01/06 02:33:01;;;;;;;4.07;2.67;;;15.60;63.00;;;;;;10498768;28;20021;-63
2021/01/06 02:38:02;;;;;;;3.03;2.30;;;15.60;63.00;;;;;;10499615;28;20742;-63
2021/01/06 02:43:04;;;;;;;2.67;1.77;;;15.60;63.00;;;;;;10497754;28;20033;-63
2021/01/06 02:48:05;;;;;;;3.88;2.78;;;15.50;63.00;;;;;;10491064;28;20035;-63
2021/01/06 02:53:09;;;;;;;3.30;2.17;;;15.60;63.10;;;;;;10497456;28;20028;-64
2021/01/06 02:58:13;;;;;;;3.13;2.28;;;15.50;63.00;;;;;;10495418;28;20074;-63
2021/01/06 03:03:15;;;;;;;3.35;2.10;;;15.50;63.00;;;;;;10496866;28;20047;-62
2021/01/06 03:08:18;;;;;;;2.60;1.90;;;15.50;63.00;;;;;;10480461;28;20036;-63
2021/01/06 03:13:18;;;;;;;3.05;1.83;;;15.50;63.00;;;;;;10498348;28;20031;-63
2021/01/06 03:18:19;;;;;;;2.92;1.95;;;15.50;63.00;;;;;;10497887;28;20362;-63
2021/01/06 03:23:52;;;;;;;3.35;2.03;;;15.40;63.10;;;;;;10498010;28;20426;-62
2021/01/06 03:28:53;;;;;;;3.38;2.38;;;15.40;63.00;;;;;;10496365;28;20039;-62
2021/01/06 03:33:59;;;;;;;2.80;2.00;;;15.40;63.00;;;;;;10496410;28;20020;-63
2021/01/06 03:39:11;;;;;;;2.63;2.00;;;15.40;63.10;;;;;;10496313;28;20121;-63
2021/01/06 03:44:15;;;;;;;3.03;2.30;;;15.40;63.00;;;;;;10512322;28;20101;-63
2021/01/06 03:49:56;;;;;;;2.53;1.92;;;15.40;63.00;;;;;;10492658;28;20037;-62
2021/01/06 03:55:44;;;;;;;2.42;1.80;;;15.40;63.10;;;;;;10491883;28;20039;-63
2021/01/06 04:00:59;;;;;;;2.95;1.88;;;15.30;63.00;;;;;;10495863;28;20081;-63
2021/01/06 04:06:01;;;;;;;3.38;2.30;;;15.30;63.00;;;;;;10495682;28;20028;-62
2021/01/06 04:11:03;;;;;;;3.30;2.10;;;15.30;63.00;;;;;;10495215;28;20111;-63
2021/01/06 04:16:04;;;;;;;3.08;1.92;;;15.30;63.10;;;;;;10495726;28;20037;-63
2021/01/06 04:21:06;;;;;;;3.45;2.47;;;15.30;63.20;;;;;;10496723;28;20366;-63
2021/01/06 04:26:09;;;;;;;2.78;1.90;;;15.30;63.20;;;;;;10496085;28;20107;-63
2021/01/06 04:31:16;;;;;;;3.55;2.00;;;15.30;63.10;;;;;;10495096;28;20017;-62
2021/01/06 04:36:23;;;;;;;2.78;1.83;;;15.30;63.10;;;;;;10495901;28;20135;-63
2021/01/06 04:41:39;;;;;;;3.38;2.40;;;15.30;63.10;;;;;;10495679;28;20431;-62
2021/01/06 04:46:48;;;;;;;2.78;1.90;;;15.20;63.00;;;;;;10495580;28;20032;-63
2021/01/06 04:52:17;;;;;;;2.78;1.75;;;15.20;63.00;;;;;;10490025;28;20430;-63
2021/01/06 04:57:39;;;;;;;3.17;2.00;;;15.20;63.00;;;;;;10494322;28;20036;-63
2021/01/06 05:03:27;;;;;;;3.10;2.15;;;15.20;63.10;;;;;;10494427;28;20112;-63
2021/01/06 05:08:41;;;;;;;3.53;2.30;;;15.20;63.00;;;;;;10490133;28;20103;-62
2021/01/06 05:14:02;;;;;;;3.35;2.03;;;15.10;63.00;;;;;;10491096;28;20037;-62
2021/01/06 05:19:16;;;;;;;3.20;2.17;;;15.20;63.10;;;;;;10495001;28;20075;-62
2021/01/06 05:24:39;;;;;;;2.50;1.70;;;15.10;63.10;;;;;;10494390;28;20036;-63
2021/01/06 05:30:01;;;;;;;2.35;1.65;;;15.10;63.10;;;;;;10501279;28;20457;-63
2021/01/06 05:35:13;;;;;;;2.78;1.88;;;15.10;63.10;;;;;;10502444;28;20089;-62
2021/01/06 05:40:14;;;;;;;3.15;1.55;;;15.10;63.10;;;;;;10485358;28;20508;-62
2021/01/06 05:45:18;;;;;;;2.03;1.50;;;15.10;63.10;;;;;;10500573;28;20074;-62
2021/01/06 05:50:39;;;;;;;2.58;1.70;;;15.10;63.20;;;;;;10500572;28;20029;-62
2021/01/06 05:55:45;;;;;;;2.95;1.73;;;15.30;63.10;;;;;;10501163;28;20036;-63
2021/01/06 06:00:59;;;;;;;2.13;1.40;;;15.40;62.80;;;;;;10500185;28;20138;-63
2021/01/06 06:06:50;;;;;;;2.30;1.85;;;15.60;62.30;;;;;;10501351;28;20020;-62
2021/01/06 06:12:39;;;;;;;2.25;1.50;;;15.90;61.70;;;;;;10501833;28;20043;-62
2021/01/06 06:18:19;;;;;;;2.35;1.30;;;16.00;61.10;;;;;;10499670;28;20048;-62
2021/01/06 06:24:13;;;;;;;1.88;1.10;;;16.20;61.00;;;;;;10500636;28;20037;-62
2021/01/06 06:29:29;;;;;;;1.70;0.95;;;16.30;60.80;;;;;;10437234;28;20036;-64
2021/01/06 06:34:37;;;;;;;2.22;1.30;;;16.40;60.60;;;;;;10499310;28;20120;-63
2021/01/06 06:40:07;;;;;;;2.20;1.27;;;16.50;60.50;;;;;;10497069;28;20029;-60
2021/01/06 06:45:24;;;;;;;1.80;1.05;;;16.70;60.60;;;;;;10498715;28;20071;-57
2021/01/06 06:51:09;;;;;;;6.00;1.75;;;16.70;60.70;;;;;;10494671;28;20031;-57
2021/01/06 06:56:45;;;;;;;4.63;1.73;;;16.80;60.90;;;;;;10495182;28;20036;-57
2021/01/06 07:01:47;;;;;;;3.72;1.25;;;16.80;61.70;;;;;;10497614;28;20111;-57
2021/01/06 07:06:55;;;;;;;3.88;1.20;;;16.80;61.90;;;;;;10497508;28;20048;-56
2021/01/06 07:12:09;;;;;;;6.35;1.55;;;16.80;62.10;;;;;;10495564;28;20041;-58
2021/01/06 07:17:14;;;;;;;4.78;1.90;;;16.80;62.20;;;;;;10490801;28;20064;-60
2021/01/06 07:22:33;;;;;;;7.50;1.55;;;16.70;62.00;;;;;;10497384;28;20107;-60
2021/01/06 07:27:36;;;;;;;6.60;1.50;;;16.70;62.40;;;;;;10496770;28;20037;-59
2021/01/06 07:32:43;;;;;;;9.82;1.58;;;16.60;62.60;;;;;;10497654;28;20439;-60
2021/01/06 07:37:46;;;;;;;7.25;1.20;;;16.70;62.40;;;;;;10495215;28;20040;-60
2021/01/06 07:43:12;;;;;;;8.10;2.33;;;16.60;62.50;;;;;;10495833;28;20064;-59
2021/01/06 07:48:16;;;;;;;11.73;1.90;;;16.70;62.40;;;;;;10491946;28;20039;-59
2021/01/06 07:53:19;;;;;;;6.50;1.55;;;16.70;62.70;;;;;;10495165;28;20036;-46
2021/01/06 07:58:37;;;;;;;2.88;1.23;;;16.80;62.50;;;;;;10493158;28;20032;-47
2021/01/06 08:03:56;;;;;;;7.50;2.22;;;16.80;62.10;;;;;;10493425;28;20079;-46
2021/01/06 08:08:56;;;;;;;8.80;2.40;;;16.80;62.00;;;;;;10493664;28;20033;-57
2021/01/06 08:14:02;;;;;;;5.53;1.73;;;16.70;62.40;;;;;;10496894;28;20134;-57
2021/01/06 08:19:33;;;;;;;8.45;1.45;;;16.80;62.50;;;;;;10491134;28;20105;-59
2021/01/06 08:24:44;;;;;;;8.43;1.75;;;16.80;62.50;;;;;;10493093;28;20449;-54
2021/01/06 08:29:45;;;;;;;7.60;1.58;;;16.70;62.70;;;;;;10494989;28;20029;-58
2021/01/06 08:34:59;;;;;;;8.82;2.10;;;16.80;63.00;;;;;;10492674;28;20024;-59
2021/01/06 08:40:03;;;;;;;9.38;1.55;;;16.80;62.80;;;;;;10488549;28;20051;-60
2021/01/06 08:45:07;;;;;;;12.45;2.53;;;16.70;63.00;;;;;;10488634;28;20055;-60
2021/01/06 08:50:38;;;;;;;12.23;2.40;;;16.70;63.00;;;;;;10507302;28;20182;-65
2021/01/06 08:55:56;;;;;;;10.27;2.80;;;16.70;62.70;;;;;;10493314;28;20085;-62
2021/01/06 09:01:00;;;;;;;19.67;3.08;;;16.70;63.10;;;;;;10496727;28;20024;-61
2021/01/06 09:06:09;;;;;;;15.38;3.40;;;16.80;62.80;;;;;;10499933;28;20040;-59
2021/01/06 09:11:21;;;;;;;21.10;2.95;;;16.70;62.80;;;;;;10503428;28;20033;-65
2021/01/06 09:16:36;;;;;;;16.83;3.60;;;16.80;62.80;;;;;;10494441;28;20044;-62
2021/01/06 09:21:39;;;;;;;12.73;3.05;;;16.70;62.70;;;;;;10498269;28;20032;-62
2021/01/06 09:26:45;;;;;;;27.02;3.38;;;16.70;62.20;;;;;;10502899;28;20029;-64
2021/01/06 09:31:54;;;;;;;18.73;3.90;;;16.70;62.40;;;;;;10500648;28;20036;-64
2021/01/06 09:36:56;;;;;;;19.60;3.47;;;16.70;62.50;;;;;;10500909;28;20449;-65
2021/01/06 09:42:00;;;;;;;20.15;3.50;;;16.70;63.00;;;;;;10501584;28;20032;-67
2021/01/06 09:47:28;;;;;;;22.45;4.25;;;16.70;64.30;;;;;;10498856;28;20880;-68
2021/01/06 09:52:36;;;;;;;16.27;3.05;;;16.70;63.20;;;;;;10510311;28;20029;-59
2021/01/06 09:57:38;;;;;;;11.93;4.07;;;16.60;63.20;;;;;;10497590;28;20021;-65
2021/01/06 10:02:46;;;;;;;16.30;3.40;;;16.60;62.90;;;;;;10499103;28;20042;-62
2021/01/06 10:08:10;;;;;;;18.30;3.67;;;16.60;62.90;;;;;;10499585;28;20460;-63
2021/01/06 10:13:33;;;;;;;9.25;2.60;;;16.50;62.60;;;;;;10494181;28;20032;-63
2021/01/06 10:19:08;;;;;;;11.95;2.45;;;16.50;62.50;;;;;;10480736;28;20048;-63
2021/01/06 10:24:26;;;;;;;9.13;2.78;;;16.50;62.50;;;;;;10494102;28;20045;-62
2021/01/06 10:29:30;;;;;;;14.18;3.10;;;16.50;62.30;;;;;;10494020;28;20449;-58
2021/01/06 10:34:44;;;;;;;9.43;3.03;;;16.50;62.50;;;;;;10499410;28;20024;-59
2021/01/06 10:39:49;;;;;;;13.60;3.30;;;16.60;62.40;;;;;;10499172;28;20033;-60
2021/01/06 10:45:13;;;;;;;17.35;3.00;;;16.60;62.50;;;;;;10499294;28;20035;-59
2021/01/06 10:50:22;;;;;;;10.73;2.38;;;16.70;62.30;;;;;;10498545;28;20037;-59
2021/01/06 10:55:37;;;;;;;;;;;16.60;62.40;;;;;;10496632;28;20036;-59
2021/01/06 11:01:09;;;;;;;9.90;1.98;;;16.60;62.80;;;;;;10497652;28;19918;-61
2021/01/06 11:06:50;;;;;;;14.38;3.03;;;16.70;62.90;;;;;;10497102;28;20422;-61
2021/01/06 11:12:50;;;;;;;10.68;2.53;;;16.60;62.40;;;;;;10498301;28;20500;-60
2021/01/06 11:18:14;;;;;;;9.63;2.67;;;16.60;61.40;;;;;;10491295;28;20048;-61
2021/01/06 11:23:26;;;;;;;9.48;2.92;;;16.60;60.30;;;;;;10493450;28;20082;-60
2021/01/06 11:28:55;;;;;;;9.43;2.72;;;16.60;59.60;;;;;;10497304;28;20036;-58
2021/01/06 11:34:21;;;;;;;13.60;3.20;;;16.60;59.50;;;;;;10499089;28;20040;-60
2021/01/06 11:39:27;;;;;;;10.82;3.22;;;16.80;60.40;;;;;;10496375;28;20032;-57
2021/01/06 11:44:35;;;;;;;9.05;3.00;;;16.80;61.40;;;;;;10499254;28;20075;-59
2021/01/06 11:49:42;;;;;;;6.72;2.60;;;16.90;61.90;;;;;;10497049;28;20051;-59
2021/01/06 11:54:49;;;;;;;12.30;2.88;;;16.90;62.50;;;;;;10496930;28;20376;-57
2021/01/06 12:00:11;;;;;;;5.05;2.22;;;17.00;62.60;;;;;;10487294;28;20473;-57
2021/01/06 12:05:31;;;;;;;8.90;3.22;;;17.00;62.60;;;;;;10496690;28;20039;-59
2021/01/06 12:11:02;;;;;;;7.45;3.17;;;17.00;62.60;;;;;;10495142;28;20058;-61
2021/01/06 12:16:44;;;;;;;9.52;3.45;;;17.00;63.20;;;;;;10494376;28;20044;-63
2021/01/06 12:22:09;;;;;;;6.03;2.08;;;16.90;62.60;;;;;;10494558;28;20044;-58
2021/01/06 12:27:41;;;;;;;12.52;2.63;;;16.80;63.30;;;;;;10493028;28;20036;-59
2021/01/06 12:33:08;;;;;;;8.00;2.70;;;16.80;63.30;;;;;;10502026;28;20025;-58
2021/01/06 12:38:22;;;;;;;16.52;2.67;;;16.70;63.80;;;;;;10506671;28;20036;-59
2021/01/06 12:43:32;;;;;;;11.95;2.97;;;16.70;63.50;;;;;;10492316;28;20457;-60
2021/01/06 12:49:00;;;;;;;11.77;2.78;;;16.70;63.40;;;;;;10511107;28;20041;-58
2021/01/06 12:54:12;;;;;;;14.30;3.00;;;16.60;63.60;;;;;;10506001;28;20111;-59
2021/01/06 12:59:23;;;;;;;17.77;3.58;;;16.60;63.70;;;;;;10506908;28;20060;-60
2021/01/06 13:04:41;;;;;;;9.63;3.10;;;16.60;64.00;;;;;;10521082;28;20970;-58
2021/01/06 13:10:15;;;;;;;20.50;3.38;;;16.60;64.10;;;;;;10501127;28;20476;-59
2021/01/06 13:15:41;;;;;;;15.35;3.45;;;16.60;64.10;;;;;;10507699;28;20338;-59
2021/01/06 13:21:24;;;;;;;22.15;3.70;;;16.70;64.20;;;;;;10507188;28;20032;-57
2021/01/06 13:26:31;;;;;;;20.02;3.80;;;16.70;63.80;;;;;;10508337;28;20040;-55
2021/01/06 13:31:38;;;;;;;10.43;2.67;;;16.60;64.10;;;;;;10507342;28;20056;-58
2021/01/06 13:37:07;;;;;;;15.15;3.15;;;16.60;63.50;;;;;;10507049;28;20514;-56
2021/01/06 13:42:31;;;;;;;14.75;5.47;;;16.50;63.40;;;;;;10485341;28;20374;-56
2021/01/06 13:47:43;;;;;;;11.13;2.67;;;16.60;63.20;;;;;;10499484;28;20052;-56
2021/01/06 13:52:58;;;;;;;18.02;3.35;;;16.60;62.90;;;;;;10503350;28;20052;-56
2021/01/06 13:58:04;;;;;;;11.05;3.03;;;16.60;62.60;;;;;;10500088;28;20045;-55
2021/01/06 14:03:37;;;;;;;11.07;1.92;;;16.60;62.40;;;;;;10482117;28;20036;-55
2021/01/06 14:09:26;;;;;;;6.85;2.15;;;16.70;62.20;;;;;;10508163;28;20040;-56
2021/01/06 14:15:11;;;;;;;8.20;2.30;;;16.70;62.10;;;;;;10496645;28;20128;-56
2021/01/06 14:20:47;;;;;;;8.18;1.73;;;16.70;62.00;;;;;;10500421;28;20045;-56
2021/01/06 14:26:02;;;;;;;9.35;2.15;;;16.70;62.00;;;;;;10499951;28;20488;-56
2021/01/06 14:31:27;;;;;;;4.88;1.73;;;16.70;61.90;;;;;;10492769;28;20036;-56
2021/01/06 14:36:41;;;;;;;9.73;2.30;;;16.70;61.80;;;;;;10497967;28;20103;-56
2021/01/06 14:42:07;;;;;;;4.32;1.83;;;16.70;61.80;;;;;;10496326;28;20028;-56
2021/01/06 14:47:36;;;;;;;6.22;1.90;;;16.60;61.60;;;;;;10494925;28;20032;-56
2021/01/06 14:53:15;;;;;;;5.47;1.67;;;16.70;61.60;;;;;;10498541;28;20036;-56
2021/01/06 14:59:02;;;;;;;6.45;1.75;;;16.70;61.50;;;;;;10498455;28;20032;-56
2021/01/06 15:04:17;;;;;;;3.92;1.60;;;16.70;61.30;;;;;;10467288;28;20036;-56
2021/01/06 15:09:45;;;;;;;5.28;1.52;;;16.70;61.30;;;;;;10498248;28;20481;-56
2021/01/06 15:14:53;;;;;;;6.35;1.58;;;16.70;61.20;;;;;;10512843;28;20025;-56
2021/01/06 15:20:22;;;;;;;4.45;1.60;;;16.70;61.30;;;;;;10485820;28;20056;-56
2021/01/06 15:25:55;;;;;;;3.28;1.30;;;16.70;61.20;;;;;;10495235;28;20031;-56
2021/01/06 15:31:04;;;;;;;2.78;1.65;;;16.70;61.00;;;;;;10494312;28;20064;-56
2021/01/06 15:36:16;;;;;;;5.03;1.65;;;16.70;61.00;;;;;;10497014;28;20032;-56
2021/01/06 15:41:25;;;;;;;5.53;2.20;;;16.70;60.30;;;;;;10496107;28;20084;-57
2021/01/06 15:46:36;;;;;;;8.40;2.33;;;16.60;59.70;;;;;;10495359;28;20032;-57
2021/01/06 15:51:46;;;;;;;8.15;2.35;;;16.60;59.50;;;;;;10495996;28;20535;-56
2021/01/06 15:56:59;;;;;;;7.93;2.25;;;16.70;59.60;;;;;;10496433;28;20112;-58
2021/01/06 16:02:01;;;;;;;13.45;2.88;;;16.70;60.00;;;;;;10495246;28;20117;-58
2021/01/06 16:07:17;;;;;;;8.93;1.98;;;16.80;59.60;;;;;;10494582;28;20025;-58
2021/01/06 16:12:28;;;;;;;14.45;2.75;;;16.90;59.80;;;;;;10495445;28;20040;-58
2021/01/06 16:17:35;;;;;;;4.75;2.00;;;16.90;59.70;;;;;;10494331;28;20040;-56
2021/01/06 16:22:43;;;;;;;7.90;1.75;;;16.90;60.20;;;;;;10494647;28;20040;-56
2021/01/06 16:27:45;;;;;;;12.43;2.28;;;17.00;60.10;;;;;;10494508;28;20456;-56
2021/01/06 16:33:15;;;;;;;9.98;2.63;;;17.10;60.20;;;;;;10489831;28;20028;-56
2021/01/06 16:38:41;;;;;;;10.60;2.28;;;17.10;60.10;;;;;;10506680;28;20044;-55
2021/01/06 16:43:42;;;;;;;7.85;2.08;;;17.20;60.20;;;;;;10495010;28;20040;-57
2021/01/06 16:48:44;;;;;;;11.48;2.97;;;17.10;59.20;;;;;;10495099;28;20070;-59
2021/01/06 16:53:45;;;;;;;4.97;1.60;;;17.10;58.60;;;;;;10494491;28;20350;-57
2021/01/06 16:58:47;;;;;;;5.97;2.08;;;17.20;58.10;;;;;;10492667;28;20028;-57
2021/01/06 17:03:56;;;;;;;9.88;2.25;;;17.20;57.80;;;;;;10494120;28;20024;-56
2021/01/06 17:09:22;;;;;;;17.48;10.27;;;17.20;57.70;;;;;;10494085;28;20040;-58
2021/01/06 17:14:24;;;;;;;12.95;7.60;;;17.30;57.70;;;;;;10494553;28;20450;-57
2021/01/06 17:19:26;;;;;;;15.48;7.20;;;17.40;57.70;;;;;;10493698;28;20405;-55
2021/01/06 17:24:32;;;;;;;12.77;5.50;;;17.40;59.00;;;;;;10484207;28;20020;-58
2021/01/06 17:29:36;;;;;;;12.23;5.28;;;17.50;59.50;;;;;;10500703;28;20388;-59
2021/01/06 17:34:36;;;;;;;14.68;5.55;;;17.60;59.90;;;;;;10501561;28;20507;-58
2021/01/06 17:39:41;;;;;;;15.63;5.93;;;17.70;60.50;;;;;;10501887;28;20044;-58
2021/01/06 17:44:43;;;;;;;8.07;4.85;;;17.70;60.60;;;;;;10502269;28;20029;-56
2021/01/06 17:49:44;;;;;;;15.25;5.05;;;17.70;60.20;;;;;;10500463;28;20032;-57
2021/01/06 17:54:45;;;;;;;11.05;4.90;;;17.60;60.50;;;;;;10488922;28;20467;-58
2021/01/06 17:59:46;;;;;;;8.35;3.92;;;17.60;60.60;;;;;;10500625;28;20380;-59
2021/01/06 18:04:47;;;;;;;15.10;4.63;;;17.50;61.10;;;;;;10501180;28;20075;-59
2021/01/06 18:09:50;;;;;;;9.40;3.63;;;17.50;60.70;;;;;;10499921;28;20373;-59
2021/01/06 18:14:51;;;;;;;14.38;4.40;;;17.30;60.70;;;;;;10500786;28;20025;-59
2021/01/06 18:19:52;;;;;;;10.15;4.30;;;17.30;60.80;;;;;;10483705;28;20504;-59
2021/01/06 18:24:53;;;;;;;10.05;3.60;;;17.30;61.00;;;;;;10466538;28;20037;-58
2021/01/06 18:29:55;;;;;;;9.25;3.70;;;17.30;61.10;;;;;;10482860;28;20181;-58
2021/01/06 18:35:14;;;;;;;7.60;2.97;;;17.20;61.20;;;;;;10492219;28;20502;-58
2021/01/06 18:40:16;;;;;;;8.40;3.67;;;17.30;61.30;;;;;;10498823;28;20059;-60
2021/01/06 18:45:18;;;;;;;6.72;3.65;;;17.30;61.60;;;;;;10493004;28;20047;-60
2021/01/06 18:50:28;;;;;;;9.55;3.03;;;17.30;62.00;;;;;;10499013;28;20040;-58
2021/01/06 18:55:30;;;;;;;5.20;2.80;;;17.30;62.00;;;;;;10500373;28;20032;-58
2021/01/06 19:00:31;;;;;;;10.35;3.30;;;17.30;62.20;;;;;;10497620;28;20047;-58
2021/01/06 19:05:49;;;;;;;5.68;3.33;;;17.30;62.20;;;;;;10495530;28;20043;-58
2021/01/06 19:10:51;;;;;;;9.52;2.88;;;17.30;61.70;;;;;;10463567;28;20095;-56
2021/01/06 19:15:52;;;;;;;9.40;2.95;;;17.30;61.40;;;;;;10496155;28;20145;-57
2021/01/06 19:20:59;;;;;;;11.38;3.40;;;17.30;61.20;;;;;;10497823;28;20081;-56
2021/01/06 19:26:00;;;;;;;14.73;3.58;;;17.30;61.20;;;;;;10497500;28;20094;-57
2021/01/06 19:31:02;;;;;;;10.10;3.10;;;17.30;61.30;;;;;;10491116;28;20037;-58
2021/01/06 19:36:02;;;;;;;9.48;3.58;;;17.30;61.20;;;;;;10497115;28;20107;-56
2021/01/06 19:41:03;;;;;;;8.93;2.80;;;17.30;61.10;;;;;;10496139;28;20552;-58
2021/01/06 19:46:04;;;;;;;8.75;2.67;;;17.20;61.50;;;;;;10489665;28;20035;-59
2021/01/06 19:51:07;;;;;;;8.30;2.78;;;17.30;61.40;;;;;;10479169;28;20036;-59
2021/01/06 19:56:13;;;;;;;11.88;3.10;;;17.20;61.30;;;;;;10491674;28;20036;-59
2021/01/06 20:01:26;;;;;;;11.25;2.65;;;17.20;61.30;;;;;;10496312;28;20038;-58
2021/01/06 20:06:27;;;;;;;9.85;3.50;;;17.20;61.20;;;;;;10493842;28;20472;-58
2021/01/06 20:11:30;;;;;;;7.35;2.53;;;17.20;61.20;;;;;;10495559;28;20029;-58
2021/01/06 20:16:31;;;;;;;5.80;2.70;;;17.20;61.20;;;;;;10495077;28;20119;-58
2021/01/06 20:21:33;;;;;;;7.50;2.72;;;17.20;61.90;;;;;;10495657;28;20032;-58
2021/01/06 20:26:33;;;;;;;3.75;2.05;;;17.10;61.30;;;;;;10494646;28;20089;-59
2021/01/06 20:31:35;;;;;;;7.53;2.85;;;17.10;61.40;;;;;;10495353;28;20032;-59
2021/01/06 20:36:36;;;;;;;8.52;2.30;;;17.00;61.60;;;;;;10494443;28;20033;-58
2021/01/06 20:41:38;;;;;;;5.97;2.58;;;17.00;61.60;;;;;;10495725;28;20429;-59
2021/01/06 20:46:39;;;;;;;5.45;2.55;;;16.90;61.70;;;;;;10489675;28;20024;-61
2021/01/06 20:51:40;;;;;;;5.90;1.70;;;16.90;61.80;;;;;;10507334;28;20696;-60
2021/01/06 20:56:46;;;;;;;4.70;2.25;;;16.80;62.00;;;;;;10483855;28;20047;-59
2021/01/06 21:01:47;;;;;;;4.63;2.20;;;16.70;62.20;;;;;;10493034;28;20048;-61
2021/01/06 21:06:48;;;;;;;5.47;2.63;;;16.70;62.20;;;;;;10502191;28;20035;-59
2021/01/06 21:11:49;;;;;;;6.00;2.33;;;16.60;62.20;;;;;;10498503;28;20025;-59
2021/01/06 21:16:49;;;;;;;8.18;3.15;;;16.50;62.30;;;;;;10503106;28;20127;-58
2021/01/06 21:21:50;;;;;;;5.70;2.33;;;16.40;62.50;;;;;;10502554;28;20028;-59
2021/01/06 21:26:53;;;;;;;4.82;2.50;;;16.30;62.60;;;;;;10502754;28;20163;-59
2021/01/06 21:31:56;;;;;;;5.00;2.47;;;16.20;62.70;;;;;;10501208;28;20060;-58
2021/01/06 21:36:57;;;;;;;3.55;2.03;;;16.20;62.80;;;;;;10502380;28;20421;-59
2021/01/06 21:41:58;;;;;;;5.40;2.42;;;16.10;62.90;;;;;;10502042;28;20104;-60
2021/01/06 21:47:00;;;;;;;4.85;2.25;;;16.10;63.00;;;;;;10492390;28;20112;-59
2021/01/06 21:52:01;;;;;;;9.18;2.85;;;16.00;62.80;;;;;;10500758;28;20713;-59
2021/01/06 21:57:02;;;;;;;6.57;2.92;;;16.00;62.90;;;;;;10500799;28;20330;-59
2021/01/06 22:02:03;;;;;;;6.93;2.28;;;15.90;62.90;;;;;;10501384;28;20036;-58
2021/01/06 22:07:04;;;;;;;5.05;2.30;;;15.90;62.90;;;;;;10500044;28;20024;-59
2021/01/06 22:12:05;;;;;;;4.60;2.50;;;15.80;63.00;;;;;;10499868;28;20040;-59
2021/01/06 22:17:06;;;;;;;3.63;1.70;;;15.80;63.00;;;;;;10501210;28;20040;-59
2021/01/06 22:22:07;;;;;;;4.65;2.72;;;15.70;63.10;;;;;;10498741;28;20039;-59
2021/01/06 22:27:07;;;;;;;4.10;2.35;;;15.70;63.20;;;;;;10499803;28;20477;-58
2021/01/06 22:32:14;;;;;;;3.70;2.20;;;15.70;63.20;;;;;;10488274;28;20104;-59
2021/01/06 22:37:14;;;;;;;4.63;2.17;;;15.60;63.10;;;;;;10500088;28;20024;-59
2021/01/06 22:42:16;;;;;;;2.95;1.80;;;15.60;63.20;;;;;;10499697;28;20118;-59
2021/01/06 22:47:17;;;;;;;4.05;2.05;;;15.60;63.20;;;;;;10498719;28;20115;-59
2021/01/06 22:52:17;;;;;;;5.18;2.35;;;15.60;63.20;;;;;;10499474;28;20036;-58
2021/01/06 22:57:18;;;;;;;3.42;2.00;;;15.50;63.00;;;;;;10499337;28;20027;-58
2021/01/06 23:02:19;;;;;;;9.27;2.22;;;15.50;63.00;;;;;;10498821;28;20052;-59
2021/01/06 23:07:19;;;;;;;3.05;2.00;;;15.50;63.00;;;;;;10497649;28;20025;-59
2021/01/06 23:12:20;;;;;;;4.38;2.08;;;15.50;63.00;;;;;;10498578;28;20036;-58
2021/01/06 23:17:21;;;;;;;5.22;2.10;;;15.40;62.90;;;;;;10498469;28;20041;-59
2021/01/06 23:22:22;;;;;;;3.63;1.83;;;15.40;62.90;;;;;;10497541;28;20118;-59
2021/01/06 23:27:22;;;;;;;2.10;1.70;;;15.40;63.00;;;;;;10498586;28;20469;-59
2021/01/06 23:32:23;;;;;;;4.10;2.28;;;15.40;62.90;;;;;;10487069;28;20033;-59
2021/01/06 23:37:24;;;;;;;3.35;1.65;;;15.30;62.90;;;;;;10496667;28;20039;-59
2021/01/06 23:42:25;;;;;;;2.70;1.73;;;15.30;62.90;;;;;;10497298;28;20042;-59
2021/01/06 23:47:25;;;;;;;4.38;2.75;;;15.30;62.90;;;;;;10496524;28;20032;-59
2021/01/06 23:52:26;;;;;;;4.57;1.95;;;15.30;62.80;;;;;;10496938;28;20035;-59
2021/01/06 23:57:27;;;;;;;2.80;2.22;;;15.30;62.90;;;;;;10497185;28;20020;-59
